createdAt,value
2022-10-25T00:01:36.403Z,99.18
2022-10-25T00:04:08.445Z,98.78
2022-10-25T00:06:40.408Z,98.92
2022-10-25T00:09:12.443Z,99.71
2022-10-25T00:11:44.860Z,99.54
2022-10-25T00:14:19.416Z,99.66
2022-10-25T00:16:51.415Z,99.95
2022-10-25T00:19:23.723Z,99.55
2022-10-25T00:21:55.711Z,99.78
2022-10-25T00:24:27.788Z,99.38
2022-10-25T00:26:59.715Z,99.27
2022-10-25T00:29:32.241Z,99.49
2022-10-25T00:32:04.304Z,99.85
2022-10-25T00:34:36.273Z,100.00
2022-10-25T00:37:08.177Z,100.00
2022-10-25T00:39:40.487Z,100.00
2022-10-25T00:42:21.342Z,100.00
2022-10-25T00:44:56.872Z,100.00
2022-10-25T00:47:44.876Z,100.00
2022-10-25T00:50:34.325Z,100.00
2022-10-25T00:53:13.385Z,100.00
2022-10-25T00:55:52.341Z,100.00
2022-10-25T00:58:28.922Z,100.00
2022-10-25T01:01:01.596Z,100.00
2022-10-25T01:03:35.217Z,100.00
2022-10-25T01:06:18.185Z,100.00
2022-10-25T01:08:52.369Z,99.64
2022-10-25T01:11:24.916Z,99.45
2022-10-25T01:13:57.802Z,99.37
2022-10-25T01:17:13.294Z,99.33
2022-10-25T01:20:25.155Z,98.60
2022-10-25T01:23:24.538Z,98.21
2022-10-25T01:26:23.907Z,98.91
2022-10-25T01:29:32.177Z,99.86
2022-10-25T01:32:43.752Z,99.45
2022-10-25T01:35:51.706Z,99.16
2022-10-25T01:38:48.465Z,98.31
2022-10-25T01:41:28.737Z,97.79
2022-10-25T01:44:18.651Z,97.83
2022-10-25T01:47:02.085Z,97.68
2022-10-25T01:49:59.525Z,97.68
2022-10-25T01:52:31.688Z,97.44
2022-10-25T01:55:11.908Z,96.17
2022-10-25T01:58:07.529Z,96.22
2022-10-25T02:01:18.297Z,96.14
2022-10-25T02:04:08.346Z,95.83
2022-10-25T02:06:51.878Z,96.96
2022-10-25T02:10:03.749Z,97.37
2022-10-25T02:12:53.697Z,96.51
2022-10-25T02:15:43.567Z,95.67
2022-10-25T02:18:21.032Z,95.75
2022-10-25T02:20:54.993Z,95.30
2022-10-25T02:23:27.559Z,95.04
2022-10-25T02:26:00.314Z,95.01
2022-10-25T02:28:34.733Z,95.54
2022-10-25T02:31:15.425Z,95.87
2022-10-25T02:33:48.666Z,95.57
2022-10-25T02:36:22.794Z,95.13
2022-10-25T02:38:55.225Z,95.54
2022-10-25T02:41:27.527Z,95.69
2022-10-25T02:43:59.872Z,95.33
2022-10-25T02:46:31.785Z,95.48
2022-10-25T02:49:03.931Z,95.10
2022-10-25T02:51:35.855Z,95.31
2022-10-25T02:54:07.786Z,94.93
2022-10-25T02:56:39.836Z,94.64
2022-10-25T02:59:15.742Z,95.16
2022-10-25T03:01:48.698Z,95.11
2022-10-25T03:04:20.801Z,95.71
2022-10-25T03:06:52.780Z,95.76
2022-10-25T03:09:24.800Z,96.07
2022-10-25T03:11:56.873Z,96.20
2022-10-25T03:14:28.754Z,95.86
2022-10-25T03:17:00.655Z,95.80
2022-10-25T03:19:32.535Z,95.53
2022-10-25T03:22:04.535Z,95.07
2022-10-25T03:24:36.536Z,94.67
2022-10-25T03:27:08.510Z,94.65
2022-10-25T03:29:40.530Z,94.97
2022-10-25T03:32:12.659Z,94.50
2022-10-25T03:34:44.539Z,93.40
2022-10-25T03:37:16.553Z,93.23
2022-10-25T03:39:48.534Z,93.43
2022-10-25T03:42:20.589Z,93.27
2022-10-25T03:44:53.674Z,92.89
2022-10-25T03:47:25.569Z,93.34
2022-10-25T03:49:57.684Z,93.32
2022-10-25T03:52:29.826Z,93.88
2022-10-25T03:55:02.007Z,93.83
2022-10-25T03:57:34.573Z,93.33
2022-10-25T04:00:07.276Z,93.93
2022-10-25T04:02:39.489Z,94.01
2022-10-25T04:05:11.393Z,94.45
2022-10-25T04:07:43.300Z,94.25
2022-10-25T04:10:17.430Z,94.18
2022-10-25T04:15:41.283Z,94.68
2022-10-25T04:18:13.187Z,94.66
2022-10-25T04:20:45.378Z,94.47
2022-10-25T04:23:17.300Z,94.63
2022-10-25T04:25:50.021Z,95.27
2022-10-25T04:28:22.457Z,95.44
2022-10-25T04:30:54.429Z,95.52
2022-10-25T04:33:26.386Z,95.60
2022-10-25T04:35:59.303Z,95.63
2022-10-25T04:38:31.209Z,97.07
2022-10-25T04:41:03.136Z,98.23
2022-10-25T04:43:36.354Z,99.78
2022-10-25T04:46:08.902Z,100.00
2022-10-25T04:48:42.549Z,100.00
2022-10-25T04:51:15.196Z,100.00
2022-10-25T04:53:47.162Z,100.00
2022-10-25T04:56:19.098Z,100.00
2022-10-25T04:58:51.069Z,100.00
2022-10-25T05:01:23.090Z,100.00
2022-10-25T05:03:55.134Z,100.00
2022-10-25T05:06:27.740Z,100.00
2022-10-25T05:08:59.687Z,100.00
2022-10-25T05:11:32.657Z,100.00
2022-10-25T05:14:04.709Z,100.00
2022-10-25T05:16:36.634Z,100.00
2022-10-25T05:19:08.632Z,100.00
2022-10-25T05:21:40.651Z,100.00
2022-10-25T05:24:12.634Z,100.00
2022-10-25T05:26:44.576Z,100.00
2022-10-25T05:29:16.522Z,100.00
2022-10-25T05:31:48.438Z,100.00
2022-10-25T05:34:20.491Z,100.00
2022-10-25T05:36:52.480Z,100.00
2022-10-25T05:39:24.691Z,100.00
2022-10-25T05:41:56.682Z,100.00
2022-10-25T05:44:28.576Z,100.00
2022-10-25T05:47:00.505Z,100.00
2022-10-25T05:49:34.214Z,100.00
2022-10-25T05:52:10.061Z,100.00
2022-10-25T05:54:42.059Z,100.00
2022-10-25T05:57:13.992Z,100.00
2022-10-25T05:59:45.903Z,100.00
2022-10-25T06:02:17.968Z,100.00
2022-10-25T06:04:52.357Z,100.00
2022-10-25T06:07:24.646Z,100.00
2022-10-25T06:09:56.550Z,100.00
2022-10-25T06:12:28.535Z,100.00
2022-10-25T06:15:00.431Z,100.00
2022-10-25T06:17:32.508Z,100.00
2022-10-25T06:20:04.899Z,100.00
2022-10-25T06:22:36.905Z,100.00
2022-10-25T06:25:09.286Z,100.00
2022-10-25T06:27:41.226Z,100.00
2022-10-25T06:30:13.189Z,100.00
2022-10-25T06:32:45.354Z,100.00
2022-10-25T06:35:17.480Z,100.00
2022-10-25T06:37:49.405Z,100.00
2022-10-25T06:42:58.093Z,100.00
2022-10-25T06:45:30.040Z,100.00
2022-10-25T06:48:02.161Z,100.00
2022-10-25T06:50:34.436Z,100.00
2022-10-25T06:53:06.467Z,100.00
2022-10-25T06:55:38.380Z,100.00
2022-10-25T06:58:10.347Z,100.00
2022-10-25T07:00:43.771Z,100.00
2022-10-25T07:03:17.945Z,100.00
2022-10-25T07:05:49.847Z,100.00
2022-10-25T07:08:23.098Z,100.00
2022-10-25T07:10:56.059Z,100.00
2022-10-25T07:13:28.128Z,100.00
2022-10-25T07:16:06.014Z,100.00
2022-10-25T07:18:38.311Z,100.00
2022-10-25T07:21:21.193Z,100.00
2022-10-25T07:23:53.287Z,100.00
2022-10-25T07:26:30.885Z,100.00
2022-10-25T07:29:04.566Z,100.00
2022-10-25T07:31:44.489Z,100.00
2022-10-25T07:34:17.050Z,100.00
2022-10-25T07:36:49.005Z,100.00
2022-10-25T07:39:20.989Z,100.00
2022-10-25T07:41:54.166Z,100.00
2022-10-25T07:44:26.088Z,100.00
2022-10-25T07:46:58.070Z,100.00
2022-10-25T07:52:11.413Z,100.00
2022-10-25T07:57:35.137Z,98.35
2022-10-25T08:00:09.583Z,96.98
2022-10-25T08:02:41.613Z,96.44
2022-10-25T08:05:13.662Z,96.98
2022-10-25T08:07:45.834Z,96.80
2022-10-25T08:10:20.617Z,95.67
2022-10-25T08:12:55.214Z,94.15
2022-10-25T08:15:27.295Z,94.30
2022-10-25T08:18:03.851Z,93.71
2022-10-25T08:21:05.273Z,93.07
2022-10-25T08:23:28.448Z,93.18
2022-10-25T08:26:01.586Z,93.38
2022-10-25T08:28:33.651Z,92.98
2022-10-25T08:31:05.825Z,92.13
2022-10-25T08:33:37.795Z,92.34
2022-10-25T08:36:10.169Z,90.99
2022-10-25T08:38:42.065Z,90.37
2022-10-25T08:41:29.056Z,90.70
2022-10-25T08:44:37.595Z,93.24
2022-10-25T08:47:33.682Z,99.05
2022-10-25T08:50:36.980Z,100.00
2022-10-25T08:53:18.801Z,100.00
2022-10-25T08:56:15.296Z,100.00
2022-10-25T08:58:51.128Z,100.00
2022-10-25T09:01:34.409Z,100.00
2022-10-25T09:04:06.433Z,100.00
2022-10-25T09:06:54.265Z,100.00
2022-10-25T09:09:54.045Z,100.00
2022-10-25T09:13:08.485Z,100.00
2022-10-25T09:16:09.567Z,100.00
2022-10-25T09:18:59.283Z,100.00
2022-10-25T09:21:42.107Z,100.00
2022-10-25T09:24:28.915Z,100.00
2022-10-25T09:27:37.550Z,100.00
2022-10-25T09:30:12.952Z,100.00
2022-10-25T09:32:49.669Z,100.00
2022-10-25T09:35:46.666Z,99.14
2022-10-25T09:38:45.494Z,100.00
2022-10-25T09:41:54.074Z,97.98
2022-10-25T09:44:42.298Z,98.34
2022-10-25T09:47:54.045Z,95.78
2022-10-25T09:50:30.590Z,95.98
2022-10-25T09:53:16.667Z,95.10
2022-10-25T09:56:05.038Z,94.15
2022-10-25T09:58:45.012Z,91.50
2022-10-25T10:01:21.916Z,89.91
2022-10-25T10:04:00.951Z,91.77
2022-10-25T10:06:37.874Z,89.22
2022-10-25T10:09:13.507Z,88.61
2022-10-25T10:11:48.078Z,89.05
2022-10-25T10:14:41.664Z,89.76
2022-10-25T10:17:17.421Z,88.29
2022-10-25T10:20:28.064Z,86.05
2022-10-25T10:23:01.081Z,86.26
2022-10-25T10:25:34.712Z,84.32
2022-10-25T10:28:14.859Z,84.88
2022-10-25T10:30:55.604Z,85.42
2022-10-25T10:33:31.195Z,85.37
2022-10-25T10:36:28.105Z,84.60
2022-10-25T10:39:22.555Z,83.33
2022-10-25T10:42:15.253Z,82.51
2022-10-25T10:45:07.978Z,83.63
2022-10-25T10:47:54.363Z,82.18
2022-10-25T10:50:32.885Z,82.90
2022-10-25T10:53:21.665Z,82.67
2022-10-25T10:55:54.932Z,82.70
2022-10-25T10:58:39.891Z,81.52
2022-10-25T11:01:16.813Z,81.81
2022-10-25T11:04:00.403Z,79.67
2022-10-25T11:06:35.308Z,78.13
2022-10-25T11:09:23.231Z,78.30
2022-10-25T11:12:11.701Z,77.78
2022-10-25T11:14:43.707Z,78.79
2022-10-25T11:17:26.655Z,78.75
2022-10-25T11:20:31.917Z,80.22
2022-10-25T11:23:14.784Z,81.04
2022-10-25T11:26:07.369Z,80.56
2022-10-25T11:28:53.145Z,78.62
2022-10-25T11:32:05.781Z,77.85
2022-10-25T11:34:55.849Z,76.74
2022-10-25T11:38:17.077Z,78.66
2022-10-25T11:41:24.012Z,77.87
2022-10-25T11:44:46.599Z,76.29
2022-10-25T11:48:02.308Z,76.32
2022-10-25T11:50:59.414Z,75.92
2022-10-25T11:54:06.675Z,76.66
2022-10-25T11:56:48.105Z,75.21
2022-10-25T12:00:01.070Z,75.76
2022-10-25T12:02:35.874Z,75.54
2022-10-25T12:05:30.330Z,74.84
2022-10-25T12:08:47.070Z,75.15
2022-10-25T12:11:26.980Z,75.25
2022-10-25T12:14:05.305Z,75.68
2022-10-25T12:16:38.493Z,73.90
2022-10-25T12:19:30.634Z,73.62
2022-10-25T12:22:09.076Z,73.37
2022-10-25T12:25:02.137Z,71.25
2022-10-25T12:27:34.928Z,68.48
2022-10-25T12:30:16.574Z,69.07
2022-10-25T12:33:02.531Z,68.72
2022-10-25T12:35:43.089Z,68.14
2022-10-25T12:38:37.064Z,68.11
2022-10-25T12:41:27.769Z,69.67
2022-10-25T12:44:40.365Z,69.59
2022-10-25T12:47:23.432Z,68.07
2022-10-25T12:50:28.094Z,69.18
2022-10-25T12:53:23.049Z,67.54
2022-10-25T12:56:16.612Z,67.85
2022-10-25T12:59:22.775Z,68.22
2022-10-25T13:02:37.347Z,65.73
2022-10-25T13:05:33.734Z,64.49
2022-10-25T13:08:07.335Z,64.88
2022-10-25T13:10:58.925Z,64.72
2022-10-25T13:13:41.366Z,64.16
2022-10-25T13:16:31.420Z,65.34
2022-10-25T13:19:53.060Z,63.61
2022-10-25T13:22:39.280Z,63.94
2022-10-25T13:25:14.463Z,64.55
2022-10-25T13:28:11.338Z,65.02
2022-10-25T13:30:44.508Z,65.74
2022-10-25T13:33:19.387Z,65.12
2022-10-25T13:35:51.367Z,65.48
2022-10-25T13:38:30.348Z,66.42
2022-10-25T13:41:16.110Z,66.07
2022-10-25T13:44:06.248Z,67.20
2022-10-25T13:46:41.150Z,67.45
2022-10-25T13:49:43.717Z,66.85
2022-10-25T13:52:32.797Z,66.97
2022-10-25T13:55:06.939Z,66.71
2022-10-25T13:57:56.677Z,66.42
2022-10-25T14:00:41.567Z,66.85
2022-10-25T14:03:13.943Z,67.26
2022-10-25T14:05:57.383Z,67.07
2022-10-25T14:08:51.098Z,66.41
2022-10-25T14:11:35.435Z,67.19
2022-10-25T14:14:33.208Z,67.06
2022-10-25T14:17:41.531Z,66.88
2022-10-25T14:20:29.738Z,66.74
2022-10-25T14:23:08.210Z,66.80
2022-10-25T14:25:43.026Z,66.51
2022-10-25T14:28:21.427Z,66.72
2022-10-25T14:31:04.627Z,66.43
2022-10-25T14:33:42.498Z,66.90
2022-10-25T14:36:32.601Z,68.61
2022-10-25T14:39:16.490Z,68.44
2022-10-25T14:41:53.806Z,69.46
2022-10-25T14:44:29.388Z,70.43
2022-10-25T14:47:01.364Z,69.51
2022-10-25T14:49:33.308Z,69.62
2022-10-25T14:52:07.976Z,70.49
2022-10-25T14:54:40.971Z,70.55
2022-10-25T14:57:13.493Z,71.07
2022-10-25T14:59:53.955Z,71.54
2022-10-25T15:02:37.585Z,71.24
2022-10-25T15:05:23.898Z,71.46
2022-10-25T15:07:58.641Z,72.11
2022-10-25T15:10:41.292Z,72.98
2022-10-25T15:13:53.415Z,72.87
2022-10-25T15:16:44.220Z,73.54
2022-10-25T15:19:20.664Z,73.66
2022-10-25T15:21:53.608Z,74.47
2022-10-25T15:24:28.220Z,74.84
2022-10-25T15:27:07.498Z,74.76
2022-10-25T15:29:42.558Z,75.04
2022-10-25T15:32:17.733Z,75.42
2022-10-25T15:35:01.357Z,75.95
2022-10-25T15:37:33.326Z,75.77
2022-10-25T15:40:15.961Z,75.88
2022-10-25T15:42:48.168Z,76.75
2022-10-25T15:45:20.294Z,77.21
2022-10-25T15:47:55.170Z,77.60
2022-10-25T15:50:27.422Z,77.71
2022-10-25T15:53:01.052Z,78.15
2022-10-25T15:55:33.341Z,78.05
2022-10-25T15:58:09.660Z,78.39
2022-10-25T16:00:43.710Z,78.96
2022-10-25T16:03:23.435Z,79.17
2022-10-25T16:05:55.407Z,79.68
2022-10-25T16:08:27.424Z,79.59
2022-10-25T16:10:59.716Z,79.70
2022-10-25T16:13:38.084Z,80.10
2022-10-25T16:16:41.146Z,80.46
2022-10-25T16:19:19.374Z,80.87
2022-10-25T16:21:51.282Z,81.19
2022-10-25T16:24:23.255Z,81.17
2022-10-25T16:26:55.243Z,81.43
2022-10-25T16:29:27.495Z,81.54
2022-10-25T16:31:59.621Z,82.54
2022-10-25T16:34:32.170Z,82.24
2022-10-25T16:37:07.732Z,82.28
2022-10-25T16:39:43.429Z,82.31
2022-10-25T16:42:31.501Z,82.40
2022-10-25T16:45:38.756Z,82.51
2022-10-25T16:48:10.676Z,82.80
2022-10-25T16:50:42.763Z,82.99
2022-10-25T16:53:16.019Z,83.13
2022-10-25T16:55:48.135Z,83.29
2022-10-25T16:58:20.129Z,83.80
2022-10-25T17:00:52.261Z,83.92
2022-10-25T17:03:24.288Z,84.41
2022-10-25T17:05:56.469Z,84.93
2022-10-25T17:08:28.395Z,84.92
2022-10-25T17:11:00.345Z,85.18
2022-10-25T17:13:32.293Z,85.56
2022-10-25T17:16:07.064Z,86.00
2022-10-25T17:18:39.071Z,86.07
2022-10-25T17:21:15.271Z,86.94
2022-10-25T17:23:47.321Z,86.98
2022-10-25T17:26:19.402Z,87.55
2022-10-25T17:28:51.415Z,87.17
2022-10-25T17:31:23.364Z,87.74
2022-10-25T17:33:56.914Z,87.77
2022-10-25T17:36:31.529Z,87.54
2022-10-25T17:39:04.345Z,88.21
2022-10-25T17:41:36.378Z,88.43
2022-10-25T17:44:11.281Z,88.47
2022-10-25T17:49:35.197Z,88.86
2022-10-25T17:52:08.410Z,89.18
2022-10-25T17:54:40.430Z,89.37
2022-10-25T17:57:12.446Z,89.40
2022-10-25T17:59:44.347Z,89.71
2022-10-25T18:02:16.518Z,89.82
2022-10-25T18:05:02.354Z,90.04
2022-10-25T18:07:41.335Z,90.19
2022-10-25T18:10:13.417Z,90.30
2022-10-25T18:12:45.533Z,90.18
2022-10-25T18:15:23.118Z,90.39
2022-10-25T18:17:55.244Z,90.87
2022-10-25T18:20:27.140Z,90.61
2022-10-25T18:22:59.097Z,91.06
2022-10-25T18:25:31.193Z,91.02
2022-10-25T18:28:03.218Z,91.24
2022-10-25T18:30:35.200Z,90.91
2022-10-25T18:33:13.398Z,91.06
2022-10-25T18:35:45.404Z,91.08
2022-10-25T18:38:17.990Z,91.26
2022-10-25T18:40:49.977Z,90.80
2022-10-25T18:43:23.741Z,91.20
2022-10-25T18:45:59.376Z,91.65
2022-10-25T18:48:31.342Z,91.69
2022-10-25T18:51:10.180Z,91.88
2022-10-25T18:53:42.246Z,91.82
2022-10-25T18:56:19.610Z,91.82
2022-10-25T18:58:56.885Z,91.51
2022-10-25T19:01:32.680Z,92.04
2022-10-25T19:04:05.372Z,92.11
2022-10-25T19:06:37.490Z,91.97
2022-10-25T19:09:09.565Z,92.52
2022-10-25T19:11:41.550Z,92.41
2022-10-25T19:14:13.601Z,92.41
2022-10-25T19:16:45.692Z,92.96
2022-10-25T19:19:17.700Z,92.89
2022-10-25T19:21:49.874Z,92.70
2022-10-25T19:24:22.983Z,92.68
2022-10-25T19:26:54.909Z,92.34
2022-10-25T19:29:27.045Z,92.38
2022-10-25T19:31:59.062Z,92.60
2022-10-25T19:34:31.038Z,93.08
2022-10-25T19:37:04.627Z,93.05
2022-10-25T19:39:37.926Z,93.15
2022-10-25T19:42:11.508Z,93.37
2022-10-25T19:44:43.513Z,93.37
2022-10-25T19:47:15.526Z,93.62
2022-10-25T19:49:47.564Z,94.26
2022-10-25T19:52:19.542Z,93.58
2022-10-25T19:54:51.513Z,94.20
2022-10-25T19:57:23.461Z,94.00
2022-10-25T19:59:55.501Z,94.15
2022-10-25T20:02:29.493Z,94.08
2022-10-25T20:05:01.790Z,94.30
2022-10-25T20:07:33.953Z,94.31
2022-10-25T20:10:06.948Z,94.45
2022-10-25T20:12:38.974Z,94.43
2022-10-25T20:15:14.631Z,95.24
2022-10-25T20:17:46.808Z,94.87
2022-10-25T20:20:19.048Z,94.92
2022-10-25T20:22:51.003Z,94.80
2022-10-25T20:25:23.028Z,94.84
2022-10-25T20:27:55.102Z,94.92
2022-10-25T20:30:27.040Z,95.19
2022-10-25T20:32:59.057Z,95.22
2022-10-25T20:35:36.549Z,95.16
2022-10-25T20:38:12.615Z,95.19
2022-10-25T20:40:45.349Z,95.06
2022-10-25T20:43:17.291Z,95.35
2022-10-25T20:45:49.311Z,95.63
2022-10-25T20:48:21.208Z,95.98
2022-10-25T20:50:53.527Z,95.91
2022-10-25T20:53:25.602Z,95.99
2022-10-25T20:55:57.672Z,96.19
2022-10-25T20:58:29.681Z,95.97
2022-10-25T21:01:02.112Z,96.44
2022-10-25T21:03:34.843Z,96.35
2022-10-25T21:06:10.678Z,96.89
2022-10-25T21:08:42.687Z,96.86
2022-10-25T21:11:14.706Z,96.93
2022-10-25T21:13:46.703Z,96.86
2022-10-25T21:16:18.625Z,96.89
2022-10-25T21:18:50.543Z,97.11
2022-10-25T21:21:22.497Z,97.21
2022-10-25T21:23:57.161Z,97.28
2022-10-25T21:26:29.531Z,97.30
2022-10-25T21:29:01.650Z,97.01
2022-10-25T21:31:33.613Z,97.33
2022-10-25T21:34:05.611Z,97.37
2022-10-25T21:36:37.617Z,97.80
2022-10-25T21:39:09.562Z,97.50
2022-10-25T21:41:41.476Z,97.41
2022-10-25T21:44:13.394Z,97.40
2022-10-25T21:46:45.435Z,97.36
2022-10-25T21:49:17.330Z,97.18
2022-10-25T21:51:49.321Z,97.04
2022-10-25T21:54:22.149Z,96.79
2022-10-25T21:56:54.630Z,97.04
2022-10-25T21:59:26.888Z,97.10
2022-10-25T22:01:59.122Z,97.08
2022-10-25T22:04:31.313Z,96.98
2022-10-25T22:07:03.349Z,97.34
2022-10-25T22:09:35.847Z,97.60
2022-10-25T22:12:07.936Z,98.31
2022-10-25T22:14:39.861Z,98.03
2022-10-25T22:17:11.810Z,98.54
2022-10-25T22:19:43.774Z,98.70
2022-10-25T22:22:15.729Z,98.42
2022-10-25T22:24:47.685Z,98.53
2022-10-25T22:27:19.675Z,98.46
2022-10-25T22:29:51.609Z,98.34
2022-10-25T22:32:23.576Z,98.71
2022-10-25T22:34:55.536Z,98.85
2022-10-25T22:37:27.509Z,99.49
2022-10-25T22:39:59.405Z,99.78
2022-10-25T22:42:31.326Z,99.84
2022-10-25T22:45:03.389Z,100.00
2022-10-25T22:47:35.349Z,100.00
2022-10-25T22:50:07.559Z,100.00
2022-10-25T22:52:39.578Z,100.00
2022-10-25T22:55:11.595Z,100.00
2022-10-25T22:57:43.681Z,100.00
2022-10-25T23:00:15.719Z,100.00
2022-10-25T23:02:47.936Z,100.00
2022-10-25T23:05:20.115Z,100.00
2022-10-25T23:07:53.555Z,100.00
2022-10-25T23:10:25.480Z,100.00
2022-10-25T23:12:57.395Z,100.00
2022-10-25T23:15:29.294Z,100.00
2022-10-25T23:18:01.270Z,100.00
2022-10-25T23:20:33.198Z,100.00
2022-10-25T23:23:05.090Z,100.00
2022-10-25T23:25:37.013Z,100.00
2022-10-25T23:28:08.926Z,100.00
2022-10-25T23:30:42.239Z,100.00
2022-10-25T23:33:14.231Z,100.00
2022-10-25T23:35:46.119Z,100.00
2022-10-25T23:38:18.028Z,100.00
2022-10-25T23:40:50.031Z,100.00
2022-10-25T23:43:21.937Z,100.00
2022-10-25T23:45:53.952Z,100.00
2022-10-25T23:48:25.969Z,100.00
2022-10-25T23:51:06.938Z,100.00
2022-10-25T23:53:39.250Z,100.00
2022-10-25T23:56:13.353Z,100.00
2022-10-25T23:58:45.272Z,100.00
